Lakewood, Washington
Current Conditions -  °F | °C
As of 5:28 AM on Sunday 21 Dec 2014 (Local Time) from KTCM Reporting Station
Overcast Overcast  
Wind Chill: 50°   Ceiling: 2600
Heat Index: 50°   Visibility: 10mi
Dew Point: 50°   Wind: 8mph
Humidity: 100%   Direction: 190°S
Pressure: 29.81"   Gusts: NA
Location:  47.17°N, 122.51°W
Report Text: KTCM 211328Z AUTO 19007KT 10SM FEW012 SCT020 BKN026 BKN032 BKN040 OVC075 10/10 A2981 RMK AO2 CIG 024V049 BKN026 V FEW
Loading
Personal Weather Stations






























Interactive Weather Map New forecast layout! Learn more

10-Day Weather Forecast

Advertisements
Track Severe Weather on mobile